sensor_id;sensor_type;location;lat;lon;timestamp;temperature;humidity
30148;DHT22;16960;49.404;8.248;2024-03-02T00:00:49;20.50;37.00
30148;DHT22;16960;49.404;8.248;2024-03-02T00:03:18;20.50;37.00
30148;DHT22;16960;49.404;8.248;2024-03-02T00:05:49;20.40;37.00
30148;DHT22;16960;49.404;8.248;2024-03-02T00:08:22;20.40;37.00
30148;DHT22;16960;49.404;8.248;2024-03-02T00:10:50;20.40;37.10
30148;DHT22;16960;49.404;8.248;2024-03-02T00:13:20;20.40;37.10
30148;DHT22;16960;49.404;8.248;2024-03-02T00:15:51;20.40;37.10
30148;DHT22;16960;49.404;8.248;2024-03-02T00:18:23;20.40;37.10
30148;DHT22;16960;49.404;8.248;2024-03-02T00:20:53;20.40;37.10
30148;DHT22;16960;49.404;8.248;2024-03-02T00:23:21;20.40;37.10
30148;DHT22;16960;49.404;8.248;2024-03-02T00:25:50;20.40;37.00
30148;DHT22;16960;49.404;8.248;2024-03-02T00:28:20;20.40;37.10
30148;DHT22;16960;49.404;8.248;2024-03-02T00:30:55;20.30;37.00
30148;DHT22;16960;49.404;8.248;2024-03-02T00:33:26;20.40;37.00
30148;DHT22;16960;49.404;8.248;2024-03-02T00:35:54;20.40;36.90
30148;DHT22;16960;49.404;8.248;2024-03-02T00:38:22;20.40;37.50
30148;DHT22;16960;49.404;8.248;2024-03-02T00:40:49;20.40;36.90
30148;DHT22;16960;49.404;8.248;2024-03-02T00:46:20;20.40;36.80
30148;DHT22;16960;49.404;8.248;2024-03-02T00:48:58;20.40;36.80
30148;DHT22;16960;49.404;8.248;2024-03-02T00:51:27;20.30;36.80
30148;DHT22;16960;49.404;8.248;2024-03-02T00:53:59;20.30;36.80
30148;DHT22;16960;49.404;8.248;2024-03-02T00:56:26;20.30;36.90
30148;DHT22;16960;49.404;8.248;2024-03-02T00:58:53;20.30;36.90
30148;DHT22;16960;49.404;8.248;2024-03-02T01:01:20;20.30;36.90
30148;DHT22;16960;49.404;8.248;2024-03-02T01:03:48;20.30;36.90
30148;DHT22;16960;49.404;8.248;2024-03-02T01:06:17;20.30;36.90
30148;DHT22;16960;49.404;8.248;2024-03-02T01:08:44;20.30;36.90
30148;DHT22;16960;49.404;8.248;2024-03-02T01:11:11;20.20;36.80
30148;DHT22;16960;49.404;8.248;2024-03-02T01:13:38;20.30;36.90
30148;DHT22;16960;49.404;8.248;2024-03-02T01:16:05;20.30;36.90
30148;DHT22;16960;49.404;8.248;2024-03-02T01:18:32;20.30;36.90
30148;DHT22;16960;49.404;8.248;2024-03-02T01:20:59;20.30;36.90
30148;DHT22;16960;49.404;8.248;2024-03-02T01:23:28;20.30;36.90
30148;DHT22;16960;49.404;8.248;2024-03-02T01:25:55;20.30;36.90
30148;DHT22;16960;49.404;8.248;2024-03-02T01:28:22;20.20;36.80
30148;DHT22;16960;49.404;8.248;2024-03-02T01:30:49;20.20;36.80
30148;DHT22;16960;49.404;8.248;2024-03-02T01:33:16;20.20;36.80
30148;DHT22;16960;49.404;8.248;2024-03-02T01:35:43;20.20;36.80
30148;DHT22;16960;49.404;8.248;2024-03-02T01:38:10;20.20;36.80
30148;DHT22;16960;49.404;8.248;2024-03-02T01:40:39;20.20;36.80
30148;DHT22;16960;49.404;8.248;2024-03-02T01:43:06;20.20;36.80
30148;DHT22;16960;49.404;8.248;2024-03-02T01:45:33;20.20;36.80
30148;DHT22;16960;49.404;8.248;2024-03-02T01:48:01;20.20;36.80
30148;DHT22;16960;49.404;8.248;2024-03-02T01:50:29;20.10;36.80
30148;DHT22;16960;49.404;8.248;2024-03-02T01:52:56;20.20;36.80
30148;DHT22;16960;49.404;8.248;2024-03-02T01:55:23;20.20;36.80
30148;DHT22;16960;49.404;8.248;2024-03-02T01:57:52;20.20;36.80
30148;DHT22;16960;49.404;8.248;2024-03-02T02:00:20;20.20;36.80
30148;DHT22;16960;49.404;8.248;2024-03-02T02:02:48;20.20;36.80
30148;DHT22;16960;49.404;8.248;2024-03-02T02:05:15;20.10;36.80
30148;DHT22;16960;49.404;8.248;2024-03-02T02:07:42;20.10;36.80
30148;DHT22;16960;49.404;8.248;2024-03-02T02:10:10;20.10;36.80
30148;DHT22;16960;49.404;8.248;2024-03-02T02:12:37;20.10;36.80
30148;DHT22;16960;49.404;8.248;2024-03-02T02:15:24;20.10;36.80
30148;DHT22;16960;49.404;8.248;2024-03-02T02:17:51;20.10;36.90
30148;DHT22;16960;49.404;8.248;2024-03-02T02:20:18;20.10;36.90
30148;DHT22;16960;49.404;8.248;2024-03-02T02:22:59;20.10;36.90
30148;DHT22;16960;49.404;8.248;2024-03-02T02:25:26;20.10;36.90
30148;DHT22;16960;49.404;8.248;2024-03-02T02:27:53;20.10;36.90
30148;DHT22;16960;49.404;8.248;2024-03-02T02:30:21;20.10;36.90
30148;DHT22;16960;49.404;8.248;2024-03-02T02:32:48;20.00;36.80
30148;DHT22;16960;49.404;8.248;2024-03-02T02:35:15;20.10;37.00
30148;DHT22;16960;49.404;8.248;2024-03-02T02:37:43;20.00;36.90
30148;DHT22;16960;49.404;8.248;2024-03-02T02:40:13;20.00;36.90
30148;DHT22;16960;49.404;8.248;2024-03-02T02:42:40;20.00;36.90
30148;DHT22;16960;49.404;8.248;2024-03-02T02:45:07;20.00;36.90
30148;DHT22;16960;49.404;8.248;2024-03-02T02:47:34;20.00;36.90
30148;DHT22;16960;49.404;8.248;2024-03-02T02:50:02;20.00;36.90
30148;DHT22;16960;49.404;8.248;2024-03-02T02:52:32;20.00;36.80
30148;DHT22;16960;49.404;8.248;2024-03-02T02:55:03;20.00;36.80
30148;DHT22;16960;49.404;8.248;2024-03-02T02:57:32;20.00;36.80
30148;DHT22;16960;49.404;8.248;2024-03-02T03:00:06;20.00;36.80
30148;DHT22;16960;49.404;8.248;2024-03-02T03:02:37;20.00;36.80
30148;DHT22;16960;49.404;8.248;2024-03-02T03:05:05;20.00;36.80
30148;DHT22;16960;49.404;8.248;2024-03-02T03:07:32;20.00;36.80
30148;DHT22;16960;49.404;8.248;2024-03-02T03:10:00;20.00;36.80
30148;DHT22;16960;49.404;8.248;2024-03-02T03:12:27;19.90;36.80
30148;DHT22;16960;49.404;8.248;2024-03-02T03:14:55;19.90;36.90
30148;DHT22;16960;49.404;8.248;2024-03-02T03:17:22;19.90;36.90
30148;DHT22;16960;49.404;8.248;2024-03-02T03:19:49;19.90;36.80
30148;DHT22;16960;49.404;8.248;2024-03-02T03:22:17;19.90;36.80
30148;DHT22;16960;49.404;8.248;2024-03-02T03:24:44;19.90;36.70
30148;DHT22;16960;49.404;8.248;2024-03-02T03:27:11;19.90;36.80
30148;DHT22;16960;49.404;8.248;2024-03-02T03:29:38;19.90;36.70
30148;DHT22;16960;49.404;8.248;2024-03-02T03:32:07;19.90;36.70
30148;DHT22;16960;49.404;8.248;2024-03-02T03:34:33;19.90;36.70
30148;DHT22;16960;49.404;8.248;2024-03-02T03:37:00;19.90;36.80
30148;DHT22;16960;49.404;8.248;2024-03-02T03:39:27;19.90;36.80
30148;DHT22;16960;49.404;8.248;2024-03-02T03:41:54;19.90;36.80
30148;DHT22;16960;49.404;8.248;2024-03-02T03:44:21;19.80;36.70
30148;DHT22;16960;49.404;8.248;2024-03-02T03:46:48;19.80;36.70
30148;DHT22;16960;49.404;8.248;2024-03-02T03:49:16;19.80;36.70
30148;DHT22;16960;49.404;8.248;2024-03-02T03:51:44;19.80;36.80
30148;DHT22;16960;49.404;8.248;2024-03-02T03:54:10;19.80;36.80
30148;DHT22;16960;49.404;8.248;2024-03-02T03:56:37;19.80;36.80
30148;DHT22;16960;49.404;8.248;2024-03-02T03:59:04;19.80;36.80
30148;DHT22;16960;49.404;8.248;2024-03-02T04:01:31;19.80;36.80
30148;DHT22;16960;49.404;8.248;2024-03-02T04:03:59;19.80;36.80
30148;DHT22;16960;49.404;8.248;2024-03-02T04:06:29;19.80;36.80
30148;DHT22;16960;49.404;8.248;2024-03-02T04:08:55;19.80;36.70
30148;DHT22;16960;49.404;8.248;2024-03-02T04:11:22;19.80;36.70
30148;DHT22;16960;49.404;8.248;2024-03-02T04:13:49;19.80;36.70
30148;DHT22;16960;49.404;8.248;2024-03-02T04:16:16;19.80;36.70
30148;DHT22;16960;49.404;8.248;2024-03-02T04:18:43;19.80;36.70
30148;DHT22;16960;49.404;8.248;2024-03-02T04:21:10;19.80;36.70
30148;DHT22;16960;49.404;8.248;2024-03-02T04:23:38;19.80;36.70
30148;DHT22;16960;49.404;8.248;2024-03-02T04:26:05;19.80;36.70
30148;DHT22;16960;49.404;8.248;2024-03-02T04:28:32;19.70;36.70
30148;DHT22;16960;49.404;8.248;2024-03-02T04:30:59;19.80;36.70
30148;DHT22;16960;49.404;8.248;2024-03-02T04:33:26;19.70;36.70
30148;DHT22;16960;49.404;8.248;2024-03-02T04:35:52;19.70;36.80
30148;DHT22;16960;49.404;8.248;2024-03-02T04:38:19;19.70;36.70
30148;DHT22;16960;49.404;8.248;2024-03-02T04:40:48;19.70;36.80
30148;DHT22;16960;49.404;8.248;2024-03-02T04:43:15;19.70;36.80
30148;DHT22;16960;49.404;8.248;2024-03-02T04:45:42;19.70;36.80
30148;DHT22;16960;49.404;8.248;2024-03-02T04:48:09;19.70;36.80
30148;DHT22;16960;49.404;8.248;2024-03-02T04:50:36;19.70;36.80
30148;DHT22;16960;49.404;8.248;2024-03-02T04:53:03;19.70;36.80
30148;DHT22;16960;49.404;8.248;2024-03-02T04:55:30;19.60;36.70
30148;DHT22;16960;49.404;8.248;2024-03-02T04:58:24;19.70;36.80
30148;DHT22;16960;49.404;8.248;2024-03-02T05:00:52;19.60;36.70
30148;DHT22;16960;49.404;8.248;2024-03-02T05:03:19;19.60;36.70
30148;DHT22;16960;49.404;8.248;2024-03-02T05:05:45;19.60;36.80
30148;DHT22;16960;49.404;8.248;2024-03-02T05:08:13;19.60;36.80
30148;DHT22;16960;49.404;8.248;2024-03-02T05:10:41;19.60;36.80
30148;DHT22;16960;49.404;8.248;2024-03-02T05:13:08;19.60;36.80
30148;DHT22;16960;49.404;8.248;2024-03-02T05:15:36;19.60;36.80
30148;DHT22;16960;49.404;8.248;2024-03-02T05:18:04;19.60;36.80
30148;DHT22;16960;49.404;8.248;2024-03-02T05:20:31;19.60;36.80
30148;DHT22;16960;49.404;8.248;2024-03-02T05:22:58;19.60;36.80
30148;DHT22;16960;49.404;8.248;2024-03-02T05:25:25;19.60;36.80
30148;DHT22;16960;49.404;8.248;2024-03-02T05:27:52;19.60;36.80
30148;DHT22;16960;49.404;8.248;2024-03-02T05:30:19;19.60;36.80
30148;DHT22;16960;49.404;8.248;2024-03-02T05:32:47;19.60;36.90
30148;DHT22;16960;49.404;8.248;2024-03-02T05:35:14;19.60;36.80
30148;DHT22;16960;49.404;8.248;2024-03-02T05:37:41;19.60;36.80
30148;DHT22;16960;49.404;8.248;2024-03-02T05:40:09;19.60;36.80
30148;DHT22;16960;49.404;8.248;2024-03-02T05:42:36;19.60;36.90
30148;DHT22;16960;49.404;8.248;2024-03-02T05:45:04;19.60;36.80
30148;DHT22;16960;49.404;8.248;2024-03-02T05:47:31;19.60;36.80
30148;DHT22;16960;49.404;8.248;2024-03-02T05:50:00;19.60;36.80
30148;DHT22;16960;49.404;8.248;2024-03-02T05:52:27;19.60;36.80
30148;DHT22;16960;49.404;8.248;2024-03-02T05:54:53;19.50;36.80
30148;DHT22;16960;49.404;8.248;2024-03-02T05:57:20;19.50;36.90
30148;DHT22;16960;49.404;8.248;2024-03-02T06:00:02;19.50;36.90
30148;DHT22;16960;49.404;8.248;2024-03-02T06:02:33;19.50;36.90
30148;DHT22;16960;49.404;8.248;2024-03-02T06:05:02;19.50;36.90
30148;DHT22;16960;49.404;8.248;2024-03-02T06:07:29;19.50;37.00
30148;DHT22;16960;49.404;8.248;2024-03-02T06:09:56;19.50;37.00
30148;DHT22;16960;49.404;8.248;2024-03-02T06:12:24;19.50;37.10
30148;DHT22;16960;49.404;8.248;2024-03-02T06:14:50;19.50;37.20
30148;DHT22;16960;49.404;8.248;2024-03-02T06:17:17;19.60;37.30
30148;DHT22;16960;49.404;8.248;2024-03-02T06:19:44;19.60;37.30
30148;DHT22;16960;49.404;8.248;2024-03-02T06:22:13;19.60;37.30
30148;DHT22;16960;49.404;8.248;2024-03-02T06:24:40;19.70;37.50
30148;DHT22;16960;49.404;8.248;2024-03-02T06:27:07;19.70;37.40
30148;DHT22;16960;49.404;8.248;2024-03-02T06:29:34;19.80;37.40
30148;DHT22;16960;49.404;8.248;2024-03-02T06:32:01;19.80;37.40
30148;DHT22;16960;49.404;8.248;2024-03-02T06:34:27;19.80;37.40
30148;DHT22;16960;49.404;8.248;2024-03-02T06:36:54;19.90;37.40
30148;DHT22;16960;49.404;8.248;2024-03-02T06:39:22;19.90;37.40
30148;DHT22;16960;49.404;8.248;2024-03-02T06:41:49;19.90;37.40
30148;DHT22;16960;49.404;8.248;2024-03-02T06:44:16;20.00;37.30
30148;DHT22;16960;49.404;8.248;2024-03-02T06:46:43;20.00;37.20
30148;DHT22;16960;49.404;8.248;2024-03-02T06:49:10;20.10;37.30
30148;DHT22;16960;49.404;8.248;2024-03-02T06:51:37;20.10;37.20
30148;DHT22;16960;49.404;8.248;2024-03-02T06:54:04;20.10;37.20
30148;DHT22;16960;49.404;8.248;2024-03-02T06:56:32;20.10;37.20
30148;DHT22;16960;49.404;8.248;2024-03-02T06:58:59;20.10;37.10
30148;DHT22;16960;49.404;8.248;2024-03-02T07:01:26;20.20;37.10
30148;DHT22;16960;49.404;8.248;2024-03-02T07:03:53;20.30;37.10
30148;DHT22;16960;49.404;8.248;2024-03-02T07:06:20;20.30;37.10
30148;DHT22;16960;49.404;8.248;2024-03-02T07:08:47;20.30;37.00
30148;DHT22;16960;49.404;8.248;2024-03-02T07:11:14;20.30;37.00
30148;DHT22;16960;49.404;8.248;2024-03-02T07:13:42;20.40;37.00
30148;DHT22;16960;49.404;8.248;2024-03-02T07:16:09;20.40;36.90
30148;DHT22;16960;49.404;8.248;2024-03-02T07:18:55;20.40;36.90
30148;DHT22;16960;49.404;8.248;2024-03-02T07:21:23;20.50;37.00
30148;DHT22;16960;49.404;8.248;2024-03-02T07:23:50;20.50;37.50
30148;DHT22;16960;49.404;8.248;2024-03-02T07:26:17;20.50;36.90
30148;DHT22;16960;49.404;8.248;2024-03-02T07:28:47;20.60;37.50
30148;DHT22;16960;49.404;8.248;2024-03-02T07:31:14;20.60;36.90
30148;DHT22;16960;49.404;8.248;2024-03-02T07:33:43;20.60;36.80
30148;DHT22;16960;49.404;8.248;2024-03-02T07:36:10;20.60;36.80
30148;DHT22;16960;49.404;8.248;2024-03-02T07:38:37;20.70;37.60
30148;DHT22;16960;49.404;8.248;2024-03-02T07:41:04;20.70;36.90
30148;DHT22;16960;49.404;8.248;2024-03-02T07:43:31;20.70;36.90
30148;DHT22;16960;49.404;8.248;2024-03-02T07:46:00;20.70;36.80
30148;DHT22;16960;49.404;8.248;2024-03-02T07:48:28;20.80;36.80
30148;DHT22;16960;49.404;8.248;2024-03-02T07:50:56;20.80;36.80
30148;DHT22;16960;49.404;8.248;2024-03-02T07:53:23;20.80;36.70
30148;DHT22;16960;49.404;8.248;2024-03-02T07:55:50;20.90;36.80
30148;DHT22;16960;49.404;8.248;2024-03-02T07:58:17;20.90;36.80
30148;DHT22;16960;49.404;8.248;2024-03-02T08:00:45;20.90;36.80
30148;DHT22;16960;49.404;8.248;2024-03-02T08:03:14;20.90;36.70
30148;DHT22;16960;49.404;8.248;2024-03-02T08:05:41;20.90;36.60
30148;DHT22;16960;49.404;8.248;2024-03-02T08:08:08;21.00;36.50
30148;DHT22;16960;49.404;8.248;2024-03-02T08:10:35;21.00;36.50
30148;DHT22;16960;49.404;8.248;2024-03-02T08:13:02;21.00;36.40
30148;DHT22;16960;49.404;8.248;2024-03-02T08:15:29;21.00;36.40
30148;DHT22;16960;49.404;8.248;2024-03-02T08:17:56;21.00;36.30
30148;DHT22;16960;49.404;8.248;2024-03-02T08:20:24;21.00;36.20
30148;DHT22;16960;49.404;8.248;2024-03-02T08:22:51;21.00;36.20
30148;DHT22;16960;49.404;8.248;2024-03-02T08:25:20;21.10;36.30
30148;DHT22;16960;49.404;8.248;2024-03-02T08:27:47;21.10;36.20
30148;DHT22;16960;49.404;8.248;2024-03-02T08:30:14;21.10;36.20
30148;DHT22;16960;49.404;8.248;2024-03-02T08:32:41;21.10;36.20
30148;DHT22;16960;49.404;8.248;2024-03-02T08:35:08;21.10;36.20
30148;DHT22;16960;49.404;8.248;2024-03-02T08:37:38;21.10;36.20
30148;DHT22;16960;49.404;8.248;2024-03-02T08:40:07;21.20;36.20
30148;DHT22;16960;49.404;8.248;2024-03-02T08:42:34;21.20;36.20
30148;DHT22;16960;49.404;8.248;2024-03-02T08:45:01;21.20;36.10
30148;DHT22;16960;49.404;8.248;2024-03-02T08:47:28;21.20;36.20
30148;DHT22;16960;49.404;8.248;2024-03-02T08:49:55;21.20;36.10
30148;DHT22;16960;49.404;8.248;2024-03-02T08:52:22;21.20;36.00
30148;DHT22;16960;49.404;8.248;2024-03-02T08:54:50;21.20;36.00
30148;DHT22;16960;49.404;8.248;2024-03-02T08:57:17;21.30;36.10
30148;DHT22;16960;49.404;8.248;2024-03-02T08:59:44;21.30;36.10
30148;DHT22;16960;49.404;8.248;2024-03-02T09:02:11;21.30;36.00
30148;DHT22;16960;49.404;8.248;2024-03-02T09:04:38;21.30;36.00
30148;DHT22;16960;49.404;8.248;2024-03-02T09:07:05;21.30;36.00
30148;DHT22;16960;49.404;8.248;2024-03-02T09:09:33;21.30;36.00
30148;DHT22;16960;49.404;8.248;2024-03-02T09:12:01;21.30;36.00
30148;DHT22;16960;49.404;8.248;2024-03-02T09:14:28;21.30;35.90
30148;DHT22;16960;49.404;8.248;2024-03-02T09:16:55;21.40;35.90
30148;DHT22;16960;49.404;8.248;2024-03-02T09:19:22;21.40;35.80
30148;DHT22;16960;49.404;8.248;2024-03-02T09:21:49;21.40;35.80
30148;DHT22;16960;49.404;8.248;2024-03-02T09:24:16;21.40;35.80
30148;DHT22;16960;49.404;8.248;2024-03-02T09:26:43;21.40;35.80
30148;DHT22;16960;49.404;8.248;2024-03-02T09:29:11;21.40;35.80
30148;DHT22;16960;49.404;8.248;2024-03-02T09:31:39;21.40;35.80
30148;DHT22;16960;49.404;8.248;2024-03-02T09:34:06;21.50;35.90
30148;DHT22;16960;49.404;8.248;2024-03-02T09:36:33;21.50;35.90
30148;DHT22;16960;49.404;8.248;2024-03-02T09:39:00;21.50;35.90
30148;DHT22;16960;49.404;8.248;2024-03-02T09:41:29;21.50;35.90
30148;DHT22;16960;49.404;8.248;2024-03-02T09:43:56;21.50;35.90
30148;DHT22;16960;49.404;8.248;2024-03-02T09:46:25;21.50;35.90
30148;DHT22;16960;49.404;8.248;2024-03-02T09:48:52;21.60;35.90
30148;DHT22;16960;49.404;8.248;2024-03-02T09:51:19;21.60;35.90
30148;DHT22;16960;49.404;8.248;2024-03-02T09:53:47;21.60;35.90
30148;DHT22;16960;49.404;8.248;2024-03-02T09:56:14;21.60;35.90
30148;DHT22;16960;49.404;8.248;2024-03-02T09:58:44;21.70;36.00
30148;DHT22;16960;49.404;8.248;2024-03-02T10:01:11;21.70;36.00
30148;DHT22;16960;49.404;8.248;2024-03-02T10:03:39;21.60;35.90
30148;DHT22;16960;49.404;8.248;2024-03-02T10:06:22;21.70;35.90
30148;DHT22;16960;49.404;8.248;2024-03-02T10:08:49;21.70;35.80
30148;DHT22;16960;49.404;8.248;2024-03-02T10:11:26;21.70;35.80
30148;DHT22;16960;49.404;8.248;2024-03-02T10:14:07;21.70;35.70
30148;DHT22;16960;49.404;8.248;2024-03-02T10:16:39;21.80;35.70
30148;DHT22;16960;49.404;8.248;2024-03-02T10:19:18;21.80;35.70
30148;DHT22;16960;49.404;8.248;2024-03-02T10:21:45;21.80;35.70
30148;DHT22;16960;49.404;8.248;2024-03-02T10:24:13;21.80;35.60
30148;DHT22;16960;49.404;8.248;2024-03-02T10:26:40;21.80;35.60
30148;DHT22;16960;49.404;8.248;2024-03-02T10:29:08;21.90;35.60
30148;DHT22;16960;49.404;8.248;2024-03-02T10:31:37;21.80;35.50
30148;DHT22;16960;49.404;8.248;2024-03-02T10:34:05;21.90;35.60
30148;DHT22;16960;49.404;8.248;2024-03-02T10:36:34;21.90;35.60
30148;DHT22;16960;49.404;8.248;2024-03-02T10:39:02;21.90;35.60
30148;DHT22;16960;49.404;8.248;2024-03-02T10:41:32;22.00;35.50
30148;DHT22;16960;49.404;8.248;2024-03-02T10:44:02;22.00;35.50
30148;DHT22;16960;49.404;8.248;2024-03-02T10:46:31;22.00;35.50
30148;DHT22;16960;49.404;8.248;2024-03-02T10:49:00;22.20;35.40
30148;DHT22;16960;49.404;8.248;2024-03-02T10:51:29;22.20;35.30
30148;DHT22;16960;49.404;8.248;2024-03-02T10:53:59;22.40;35.30
30148;DHT22;16960;49.404;8.248;2024-03-02T10:56:28;22.40;35.10
30148;DHT22;16960;49.404;8.248;2024-03-02T10:59:01;22.50;35.20
30148;DHT22;16960;49.404;8.248;2024-03-02T11:01:31;22.60;35.00
30148;DHT22;16960;49.404;8.248;2024-03-02T11:03:59;22.70;34.90
30148;DHT22;16960;49.404;8.248;2024-03-02T11:06:29;22.80;34.80
30148;DHT22;16960;49.404;8.248;2024-03-02T11:09:00;22.90;34.70
30148;DHT22;16960;49.404;8.248;2024-03-02T11:11:37;22.90;34.60
30148;DHT22;16960;49.404;8.248;2024-03-02T11:14:09;22.90;34.50
30148;DHT22;16960;49.404;8.248;2024-03-02T11:16:38;22.90;34.30
30148;DHT22;16960;49.404;8.248;2024-03-02T11:19:08;23.00;34.20
30148;DHT22;16960;49.404;8.248;2024-03-02T11:21:37;23.00;34.20
30148;DHT22;16960;49.404;8.248;2024-03-02T11:24:30;23.00;34.20
30148;DHT22;16960;49.404;8.248;2024-03-02T11:27:00;23.00;34.20
30148;DHT22;16960;49.404;8.248;2024-03-02T11:29:46;23.10;34.20
30148;DHT22;16960;49.404;8.248;2024-03-02T11:32:15;23.10;34.20
30148;DHT22;16960;49.404;8.248;2024-03-02T11:34:43;23.10;34.10
30148;DHT22;16960;49.404;8.248;2024-03-02T11:37:12;23.00;34.10
30148;DHT22;16960;49.404;8.248;2024-03-02T11:39:43;23.00;34.10
30148;DHT22;16960;49.404;8.248;2024-03-02T11:42:11;23.00;34.20
30148;DHT22;16960;49.404;8.248;2024-03-02T11:44:41;23.10;34.20
30148;DHT22;16960;49.404;8.248;2024-03-02T11:47:11;23.10;34.20
30148;DHT22;16960;49.404;8.248;2024-03-02T11:49:40;23.10;34.30
30148;DHT22;16960;49.404;8.248;2024-03-02T11:52:09;23.00;34.20
30148;DHT22;16960;49.404;8.248;2024-03-02T11:54:37;23.10;34.20
30148;DHT22;16960;49.404;8.248;2024-03-02T11:57:07;23.10;34.20
30148;DHT22;16960;49.404;8.248;2024-03-02T11:59:35;23.10;34.10
30148;DHT22;16960;49.404;8.248;2024-03-02T12:02:02;23.10;34.10
30148;DHT22;16960;49.404;8.248;2024-03-02T12:04:29;23.10;33.90
30148;DHT22;16960;49.404;8.248;2024-03-02T12:06:59;23.00;33.80
30148;DHT22;16960;49.404;8.248;2024-03-02T12:09:28;23.00;33.90
30148;DHT22;16960;49.404;8.248;2024-03-02T12:12:03;23.00;33.90
30148;DHT22;16960;49.404;8.248;2024-03-02T12:14:32;23.00;33.80
30148;DHT22;16960;49.404;8.248;2024-03-02T12:16:59;23.00;33.60
30148;DHT22;16960;49.404;8.248;2024-03-02T12:19:27;23.00;33.80
30148;DHT22;16960;49.404;8.248;2024-03-02T12:21:56;23.00;33.90
30148;DHT22;16960;49.404;8.248;2024-03-02T12:24:24;23.00;33.80
30148;DHT22;16960;49.404;8.248;2024-03-02T12:26:51;23.00;33.90
30148;DHT22;16960;49.404;8.248;2024-03-02T12:29:19;23.00;33.90
30148;DHT22;16960;49.404;8.248;2024-03-02T12:31:49;23.00;33.80
30148;DHT22;16960;49.404;8.248;2024-03-02T12:34:18;23.00;33.90
30148;DHT22;16960;49.404;8.248;2024-03-02T12:36:46;23.00;33.80
30148;DHT22;16960;49.404;8.248;2024-03-02T12:39:15;23.10;33.90
30148;DHT22;16960;49.404;8.248;2024-03-02T12:41:42;23.10;33.90
30148;DHT22;16960;49.404;8.248;2024-03-02T12:44:10;23.10;33.90
30148;DHT22;16960;49.404;8.248;2024-03-02T12:46:37;23.10;33.90
30148;DHT22;16960;49.404;8.248;2024-03-02T12:49:12;23.10;33.80
30148;DHT22;16960;49.404;8.248;2024-03-02T12:51:40;23.10;33.70
30148;DHT22;16960;49.404;8.248;2024-03-02T12:54:08;23.10;33.80
30148;DHT22;16960;49.404;8.248;2024-03-02T12:56:35;23.10;33.90
30148;DHT22;16960;49.404;8.248;2024-03-02T12:59:03;23.10;33.90
30148;DHT22;16960;49.404;8.248;2024-03-02T13:01:30;23.10;33.90
30148;DHT22;16960;49.404;8.248;2024-03-02T13:03:58;23.10;33.90
30148;DHT22;16960;49.404;8.248;2024-03-02T13:06:27;23.20;33.80
30148;DHT22;16960;49.404;8.248;2024-03-02T13:08:54;23.20;33.60
30148;DHT22;16960;49.404;8.248;2024-03-02T13:11:22;23.20;33.70
30148;DHT22;16960;49.404;8.248;2024-03-02T13:13:50;23.20;33.70
30148;DHT22;16960;49.404;8.248;2024-03-02T13:16:18;23.20;33.70
30148;DHT22;16960;49.404;8.248;2024-03-02T13:18:45;23.20;33.60
30148;DHT22;16960;49.404;8.248;2024-03-02T13:21:12;23.30;33.80
30148;DHT22;16960;49.404;8.248;2024-03-02T13:23:41;23.30;33.80
30148;DHT22;16960;49.404;8.248;2024-03-02T13:26:07;23.30;33.80
30148;DHT22;16960;49.404;8.248;2024-03-02T13:28:36;23.30;33.80
30148;DHT22;16960;49.404;8.248;2024-03-02T13:31:04;23.20;33.70
30148;DHT22;16960;49.404;8.248;2024-03-02T13:33:32;23.30;34.00
30148;DHT22;16960;49.404;8.248;2024-03-02T13:35:59;23.20;33.90
30148;DHT22;16960;49.404;8.248;2024-03-02T13:38:27;23.30;34.00
30148;DHT22;16960;49.404;8.248;2024-03-02T13:40:55;23.30;34.00
30148;DHT22;16960;49.404;8.248;2024-03-02T13:43:22;23.30;34.20
30148;DHT22;16960;49.404;8.248;2024-03-02T13:45:50;23.30;34.30
30148;DHT22;16960;49.404;8.248;2024-03-02T13:48:17;23.30;34.50
30148;DHT22;16960;49.404;8.248;2024-03-02T13:50:45;23.30;34.50
30148;DHT22;16960;49.404;8.248;2024-03-02T13:53:12;23.30;34.50
30148;DHT22;16960;49.404;8.248;2024-03-02T13:55:39;23.30;34.50
30148;DHT22;16960;49.404;8.248;2024-03-02T13:58:09;23.40;34.50
30148;DHT22;16960;49.404;8.248;2024-03-02T14:00:37;23.40;34.50
30148;DHT22;16960;49.404;8.248;2024-03-02T14:03:05;23.30;34.50
30148;DHT22;16960;49.404;8.248;2024-03-02T14:05:33;23.30;34.50
30148;DHT22;16960;49.404;8.248;2024-03-02T14:07:59;23.30;34.50
30148;DHT22;16960;49.404;8.248;2024-03-02T14:10:27;23.30;34.60
30148;DHT22;16960;49.404;8.248;2024-03-02T14:12:54;23.30;34.60
30148;DHT22;16960;49.404;8.248;2024-03-02T14:15:23;23.30;34.70
30148;DHT22;16960;49.404;8.248;2024-03-02T14:17:50;23.30;34.70
30148;DHT22;16960;49.404;8.248;2024-03-02T14:20:17;23.20;34.60
30148;DHT22;16960;49.404;8.248;2024-03-02T14:22:48;23.20;34.70
30148;DHT22;16960;49.404;8.248;2024-03-02T14:25:15;23.20;34.70
30148;DHT22;16960;49.404;8.248;2024-03-02T14:27:42;23.20;34.80
30148;DHT22;16960;49.404;8.248;2024-03-02T14:30:11;23.20;34.80
30148;DHT22;16960;49.404;8.248;2024-03-02T14:32:39;23.20;34.80
30148;DHT22;16960;49.404;8.248;2024-03-02T14:35:07;23.10;34.80
30148;DHT22;16960;49.404;8.248;2024-03-02T14:37:36;23.10;34.90
30148;DHT22;16960;49.404;8.248;2024-03-02T14:40:03;23.10;35.00
30148;DHT22;16960;49.404;8.248;2024-03-02T14:42:32;23.10;35.00
30148;DHT22;16960;49.404;8.248;2024-03-02T14:44:59;23.00;34.90
30148;DHT22;16960;49.404;8.248;2024-03-02T14:47:28;23.00;35.00
30148;DHT22;16960;49.404;8.248;2024-03-02T14:49:56;23.00;35.00
30148;DHT22;16960;49.404;8.248;2024-03-02T14:52:23;23.00;35.00
30148;DHT22;16960;49.404;8.248;2024-03-02T14:54:50;23.00;35.10
30148;DHT22;16960;49.404;8.248;2024-03-02T14:57:17;22.90;35.10
30148;DHT22;16960;49.404;8.248;2024-03-02T14:59:44;22.90;35.20
30148;DHT22;16960;49.404;8.248;2024-03-02T15:02:11;22.90;35.20
30148;DHT22;16960;49.404;8.248;2024-03-02T15:04:38;22.90;35.30
30148;DHT22;16960;49.404;8.248;2024-03-02T15:07:06;22.90;35.30
30148;DHT22;16960;49.404;8.248;2024-03-02T15:09:33;22.80;35.30
30148;DHT22;16960;49.404;8.248;2024-03-02T15:12:01;22.80;35.30
30148;DHT22;16960;49.404;8.248;2024-03-02T15:14:29;22.80;35.40
30148;DHT22;16960;49.404;8.248;2024-03-02T15:16:56;22.80;35.40
30148;DHT22;16960;49.404;8.248;2024-03-02T15:19:23;22.70;35.50
30148;DHT22;16960;49.404;8.248;2024-03-02T15:21:50;22.80;35.40
30148;DHT22;16960;49.404;8.248;2024-03-02T15:24:18;22.80;35.90
30148;DHT22;16960;49.404;8.248;2024-03-02T15:26:45;22.80;35.80
30148;DHT22;16960;49.404;8.248;2024-03-02T15:29:12;22.80;36.00
30148;DHT22;16960;49.404;8.248;2024-03-02T15:31:39;22.90;36.10
30148;DHT22;16960;49.404;8.248;2024-03-02T15:34:05;22.90;36.10
30148;DHT22;16960;49.404;8.248;2024-03-02T15:36:33;23.00;36.10
30148;DHT22;16960;49.404;8.248;2024-03-02T15:39:01;23.00;36.00